.
WxDataArchive / Data Records for 2008-04-03
2008-04-02 April 2008 2008-04-04

Data Records for Thursday, 03 April 2008

Time	Temp	Chill	HIndex	Humid	Dewpt	 Wind 	HiWind	WindDir	Rain 	Barom 
-----	----	-----	------	-----	-----	------	------	-------	-----	----- 
00:00	35.5	35.5	35.5	64	24.5	0	3	90	0.00	30.321 
00:05	35.8	35.8	35.8	63	24.5	1	3	90	0.00	30.318 
00:10	35.8	35.8	35.8	63	24.5	0	1	90	0.00	30.317 
00:15	35.6	35.6	35.6	64	24.6	1	2	90	0.00	30.316 
00:20	35.5	35.5	35.5	65	24.9	0	2	90	0.00	30.315 
00:25	35.3	35.3	35.3	66	25.1	1	2	90	0.00	30.316 
00:30	35.0	35.0	35.0	67	25.2	1	2	90	0.00	30.316 
00:35	34.9	34.9	34.9	68	25.4	1	2	90	0.00	30.316 
00:40	34.7	34.7	34.7	69	25.6	0	2	90	0.00	30.315 
00:45	34.4	34.4	34.4	69	25.3	0	2	90	0.00	30.314 
00:50	34.1	34.1	34.1	70	25.4	0	1	90	0.00	30.313 
00:55	34.0	34.0	34.0	71	25.6	0	1	90	0.00	30.310 
01:00	33.8	33.8	33.8	72	25.7	0	2	90	0.00	30.305 
01:05	33.7	33.7	33.7	73	26.0	0	2	90	0.00	30.302 
01:10	33.5	33.5	33.5	73	25.8	1	3	90	0.00	30.301 
01:15	33.5	33.5	33.5	73	25.8	0	2	90	0.00	30.301 
01:20	33.5	33.5	33.5	74	26.1	0	2	90	0.00	30.298 
01:25	33.5	33.5	33.5	74	26.1	1	3	90	0.00	30.299 
01:30	33.5	33.5	33.5	75	26.4	1	3	90	0.00	30.298 
01:35	33.4	33.4	33.4	75	26.3	1	2	90	0.00	30.298 
01:40	33.2	33.2	33.2	76	26.5	1	3	90	0.00	30.296 
01:45	33.2	33.2	33.2	76	26.5	0	2	90	0.00	30.296 
01:50	33.1	33.1	33.1	77	26.7	1	2	90	0.00	30.294 
01:55	32.9	32.9	32.9	77	26.5	1	3	90	0.00	30.287 
02:00	32.8	32.8	32.8	77	26.4	1	3	90	0.00	30.286 
02:05	32.8	32.8	32.8	77	26.4	1	3	90	0.00	30.283 
02:10	32.8	32.8	32.8	77	26.4	1	3	90	0.00	30.281 
02:15	32.8	32.8	32.8	77	26.4	1	2	90	0.00	30.278 
02:20	32.7	32.7	32.7	77	26.3	0	2	90	0.00	30.273 
02:25	32.7	32.7	32.7	77	26.3	1	3	90	0.00	30.274 
02:30	32.7	32.7	32.7	77	26.3	0	2	90	0.00	30.270 
02:35	32.5	32.5	32.5	77	26.1	1	2	90	0.00	30.270 
02:40	32.4	32.4	32.4	78	26.3	1	3	90	0.00	30.271 
02:45	32.2	32.2	32.2	78	26.1	1	2	90	0.00	30.269 
02:50	32.2	32.2	32.2	78	26.1	0	2	90	0.00	30.269 
02:55	31.9	31.9	31.9	79	26.1	0	1	90	0.00	30.267 
03:00	31.8	31.8	31.8	79	26.0	0	1	90	0.00	30.265 
03:05	31.8	31.8	31.8	80	26.3	0	1	90	0.00	30.264 
03:10	31.5	31.5	31.5	80	26.1	0	1	90	0.00	30.260 
03:15	31.3	31.3	31.3	80	25.9	0	0	---	0.00	30.259 
03:20	31.2	31.2	31.2	81	26.1	0	1	90	0.00	30.257 
03:25	31.0	31.0	31.0	81	25.9	0	1	90	0.00	30.256 
03:30	30.9	30.9	30.9	81	25.8	0	0	---	0.00	30.255 
03:35	30.7	30.7	30.7	81	25.6	0	0	---	0.00	30.256 
03:40	30.6	30.6	30.6	81	25.5	0	0	---	0.00	30.256 
03:45	30.3	30.3	30.3	81	25.2	0	0	---	0.00	30.255 
03:50	30.1	30.1	30.1	81	25.0	0	1	90	0.00	30.255 
03:55	30.1	30.1	30.1	82	25.3	0	1	90	0.00	30.254 
04:00	30.0	30.0	30.0	82	25.2	0	2	90	0.00	30.249 
04:05	30.1	30.1	30.1	82	25.3	0	2	90	0.00	30.248 
04:10	30.3	30.3	30.3	81	25.2	1	2	90	0.00	30.243 
04:15	30.3	30.3	30.3	81	25.2	1	3	90	0.00	30.240 
04:20	30.3	30.3	30.3	81	25.2	0	2	90	0.00	30.239 
04:25	30.3	30.3	30.3	81	25.2	0	2	90	0.00	30.239 
04:30	30.1	30.1	30.1	81	25.0	0	1	90	0.00	30.238 
04:35	30.1	30.1	30.1	81	25.0	0	2	90	0.00	30.238 
04:40	30.0	30.0	30.0	81	24.9	0	1	90	0.00	30.238 
04:45	30.0	30.0	30.0	81	24.9	0	2	90	0.00	30.235 
04:50	29.8	29.8	29.8	81	24.7	0	1	90	0.00	30.237 
04:55	29.8	29.8	29.8	81	24.7	0	1	90	0.00	30.231 
05:00	29.7	29.7	29.7	81	24.6	0	3	90	0.00	30.231 
05:05	29.7	29.7	29.7	81	24.6	0	1	90	0.00	30.230 
05:10	29.5	29.5	29.5	81	24.4	0	1	90	0.00	30.228 
05:15	29.5	29.5	29.5	82	24.7	0	1	90	0.00	30.227 
05:20	29.4	29.4	29.4	82	24.6	0	1	90	0.00	30.226 
05:25	29.3	29.3	29.3	82	24.5	0	1	90	0.00	30.224 
05:30	29.3	29.3	29.3	82	24.5	0	1	90	0.00	30.220 
05:35	29.1	29.1	29.1	83	24.6	0	1	90	0.00	30.214 
05:40	29.3	29.3	29.3	82	24.5	1	2	90	0.00	30.210 
05:45	29.3	29.3	29.3	82	24.5	0	1	90	0.00	30.210 
05:50	29.1	29.1	29.1	82	24.3	0	1	90	0.00	30.209 
05:55	29.3	29.3	29.3	82	24.5	0	2	90	0.00	30.209 
06:00	29.3	29.3	29.3	82	24.5	0	0	---	0.00	30.209 
06:05	29.1	29.1	29.1	82	24.3	0	1	90	0.00	30.210 
06:10	29.1	29.1	29.1	82	24.3	0	2	90	0.00	30.211 
06:15	29.3	29.3	29.3	82	24.5	0	1	90	0.00	30.211 
06:20	29.3	29.3	29.3	82	24.5	0	1	90	0.00	30.211 
06:25	29.3	29.3	29.3	82	24.5	0	2	90	0.00	30.210 
06:30	29.3	29.3	29.3	82	24.5	0	1	90	0.00	30.210 
06:35	29.1	29.1	29.1	82	24.3	0	2	90	0.00	30.211 
06:40	29.3	29.3	29.3	81	24.2	0	2	90	0.00	30.211 
06:45	29.3	29.3	29.3	81	24.2	1	3	90	0.00	30.210 
06:50	29.4	29.4	29.4	81	24.3	1	2	90	0.00	30.212 
06:55	29.7	29.7	29.7	81	24.6	1	3	90	0.00	30.212 
07:00	30.0	30.0	30.0	81	24.9	1	3	90	0.00	30.210 
07:05	30.3	30.3	30.3	80	24.9	1	3	90	0.00	30.212 
07:10	30.7	30.7	30.7	79	25.0	1	4	90	0.00	30.213 
07:15	31.3	31.3	31.3	78	25.3	1	3	90	0.00	30.212 
07:20	31.8	31.8	31.8	77	25.4	1	5	90	0.00	30.207 
07:25	32.2	32.2	32.2	76	25.5	2	5	112	0.00	30.200 
07:30	32.5	32.5	32.5	76	25.8	1	3	112	0.00	30.206 
07:35	32.9	32.9	32.9	76	26.2	1	4	112	0.00	30.204 
07:40	33.4	33.4	33.4	74	26.0	1	5	112	0.00	30.201 
07:45	33.7	33.7	33.7	74	26.3	2	6	112	0.00	30.203 
07:50	33.8	33.8	33.8	74	26.4	2	5	90	0.00	30.199 
07:55	34.1	34.1	34.1	73	26.4	2	5	112	0.00	30.197 
08:00	34.3	34.3	34.3	72	26.2	3	7	112	0.00	30.194 
08:05	34.6	34.6	34.6	72	26.5	2	5	112	0.00	30.195 
08:10	35.0	35.0	35.0	72	26.9	1	3	90	0.00	30.192 
08:15	35.5	35.5	35.5	70	26.7	1	5	90	0.00	30.191 
08:20	35.6	35.6	35.6	69	26.4	2	6	112	0.00	30.190 
08:25	35.6	35.6	35.6	70	26.8	2	5	112	0.00	30.192 
08:30	35.9	35.9	35.9	70	27.1	1	4	112	0.00	30.193 
08:35	36.2	36.2	36.2	70	27.4	1	5	112	0.00	30.193 
08:40	36.5	36.5	36.5	70	27.7	1	3	90	0.00	30.191 
08:45	36.6	36.6	36.6	69	27.4	1	4	112	0.00	30.184 
08:50	36.9	36.9	36.9	69	27.7	2	5	112	0.00	30.183 
08:55	37.0	37.0	37.0	68	27.4	2	4	90	0.00	30.181 
09:00	37.3	37.3	37.3	68	27.7	1	2	112	0.00	30.181 
09:05	37.6	37.6	37.6	69	28.4	1	2	112	0.00	30.186 
09:10	37.8	37.8	37.8	69	28.6	0	3	112	0.00	30.185 
09:15	37.8	37.8	37.8	68	28.2	2	4	112	0.00	30.184 
09:20	38.0	38.0	38.0	68	28.4	1	3	112	0.00	30.177 
09:25	38.2	38.2	38.2	67	28.2	1	3	112	0.00	30.177 
09:30	38.3	38.3	38.3	67	28.3	1	3	112	0.00	30.174 
09:35	38.5	38.5	38.5	66	28.1	2	4	112	0.00	30.170 
09:40	38.6	38.6	38.6	65	27.9	1	6	112	0.00	30.170 
09:45	38.8	38.8	38.8	65	28.1	2	4	112	0.00	30.167 
09:50	38.9	38.9	38.9	64	27.8	1	5	112	0.00	30.164 
09:55	39.1	39.1	39.1	64	28.0	2	5	90	0.00	30.171 
10:00	39.1	39.1	39.1	64	28.0	1	4	90	0.00	30.175 
10:05	39.3	39.3	39.3	64	28.2	2	3	90	0.00	30.173 
10:10	39.6	39.6	39.6	63	28.1	1	3	90	0.00	30.169 
10:15	40.1	40.1	40.1	61	27.7	2	5	90	0.00	30.165 
10:20	40.3	40.3	40.3	60	27.5	3	8	90	0.00	30.161 
10:25	40.2	40.2	40.2	61	27.8	3	9	90	0.00	30.161 
10:30	40.3	40.3	40.3	61	27.9	2	5	112	0.00	30.160 
10:35	40.5	40.5	40.5	59	27.3	2	5	112	0.00	30.160 
10:40	40.6	40.6	40.6	62	28.6	2	5	112	0.00	30.158 
10:45	41.2	41.2	41.2	62	29.2	2	4	90	0.00	30.156 
10:50	41.6	41.6	41.6	59	28.3	2	5	112	0.00	30.149 
10:55	41.6	41.6	41.6	61	29.2	2	5	90	0.00	30.145 
11:00	41.8	41.8	41.8	59	28.5	2	5	90	0.00	30.150 
11:05	41.9	41.9	41.9	61	29.4	2	5	112	0.00	30.148 
11:10	41.9	41.9	41.9	59	28.6	2	5	90	0.00	30.146 
11:15	41.9	41.9	41.9	58	28.2	3	6	112	0.00	30.143 
11:20	42.1	42.1	42.1	58	28.4	3	7	90	0.00	30.140 
11:25	42.5	42.5	42.5	58	28.8	2	4	112	0.00	30.141 
11:30	42.8	42.8	42.8	57	28.6	2	5	112	0.00	30.140 
11:35	42.8	42.8	42.8	58	29.1	2	5	90	0.00	30.139 
11:40	43.1	43.1	43.1	57	28.9	1	4	112	0.00	30.136 
11:45	43.5	43.5	43.5	56	28.9	2	6	90	0.00	30.125 
11:50	43.3	43.3	43.3	57	29.1	3	6	112	0.00	30.128 
11:55	43.5	43.5	43.5	56	28.9	2	5	90	0.00	30.122 
12:00	44.1	44.1	44.1	57	29.9	1	4	68	0.00	30.120 
12:05	44.2	44.2	44.2	55	29.1	2	5	45	0.00	30.115 
12:10	44.5	44.5	44.5	55	29.3	2	6	90	0.00	30.112 
12:15	44.9	43.0	44.9	54	29.3	4	9	112	0.00	30.105 
12:20	45.8	45.8	45.8	58	31.9	2	6	112	0.00	30.099 
12:25	46.8	46.8	46.8	51	29.6	3	7	112	0.00	30.088 
12:30	47.4	47.4	47.4	54	31.6	3	7	22	0.00	30.084 
12:35	47.6	46.1	47.6	50	29.9	4	9	90	0.00	30.075 
12:40	47.7	47.7	47.7	53	31.4	2	6	112	0.00	30.077 
12:45	47.9	47.9	47.9	53	31.6	3	6	68	0.00	30.068 
12:50	48.6	48.6	48.6	53	32.3	3	7	112	0.00	30.063 
12:55	48.9	47.6	48.9	53	32.5	4	9	112	0.00	30.060 
13:00	49.5	49.5	49.5	52	32.6	3	7	68	0.00	30.058 
13:05	49.5	48.3	49.5	46	29.6	4	11	112	0.00	30.056 
13:10	49.6	48.4	49.6	52	32.7	4	8	112	0.00	30.050 
13:15	50.4	50.4	50.4	52	33.4	3	7	90	0.00	30.048 
13:20	50.5	50.5	50.5	51	33.1	5	12	112	0.00	30.052 
13:25	51.0	51.0	51.0	48	32.0	4	13	112	0.00	30.052 
13:30	51.0	51.0	51.0	46	31.0	3	10	112	0.00	30.044 
13:35	51.3	51.3	51.3	47	31.8	4	10	112	0.00	30.041 
13:40	51.9	51.9	51.9	46	31.8	4	7	112	0.00	30.036 
13:45	52.2	52.2	52.2	45	31.5	4	7	112	0.00	30.033 
13:50	52.6	52.6	52.6	43	30.7	4	10	112	0.00	30.031 
13:55	52.8	52.8	52.8	46	32.6	3	8	112	0.00	30.030 
14:00	53.1	53.1	53.1	45	32.3	3	7	112	0.00	30.026 
14:05	53.3	53.3	53.3	40	29.6	4	7	112	0.00	30.023 
14:10	53.5	53.5	53.5	43	31.6	3	7	112	0.00	30.019 
14:15	53.5	53.5	53.5	40	29.8	4	10	112	0.00	30.020 
14:20	53.6	53.6	53.6	39	29.3	5	11	112	0.00	30.014 
14:25	53.6	53.6	53.6	40	29.9	3	7	112	0.00	30.011 
14:30	54.1	54.1	54.1	39	29.7	5	12	112	0.00	30.011 
14:35	54.4	54.4	54.4	38	29.3	5	13	112	0.00	30.006 
14:40	54.1	54.1	54.1	36	27.7	7	13	112	0.00	29.998 
14:45	53.8	53.8	53.8	38	28.8	6	13	112	0.00	30.003 
14:50	54.2	54.2	54.2	38	29.2	4	8	112	0.00	30.003 
14:55	54.5	54.5	54.5	39	30.1	4	10	112	0.00	29.996 
15:00	54.4	54.4	54.4	38	29.3	5	10	112	0.00	29.993 
15:05	54.4	54.4	54.4	41	31.2	4	12	112	0.00	29.992 
15:10	54.1	54.1	54.1	39	29.7	5	12	90	0.00	29.995 
15:15	53.9	53.9	53.9	39	29.5	5	10	90	0.00	29.994 
15:20	53.6	53.6	53.6	41	30.5	6	11	112	0.00	29.982 
15:25	53.6	53.6	53.6	42	31.1	5	10	112	0.00	29.980 
15:30	53.6	53.6	53.6	42	31.1	5	10	112	0.00	29.982 
15:35	53.5	53.5	53.5	43	31.6	5	12	112	0.00	29.979 
15:40	53.5	53.5	53.5	44	32.1	5	10	90	0.00	29.975 
15:45	53.1	53.1	53.1	42	30.6	8	13	90	0.00	29.969 
15:50	52.9	52.9	52.9	45	32.1	7	15	112	0.00	29.965 
15:55	53.3	53.3	53.3	44	31.9	6	19	112	0.00	29.957 
16:00	53.5	53.5	53.5	46	33.2	5	12	112	0.00	29.958 
16:05	53.2	53.2	53.2	44	31.9	6	12	112	0.00	29.963 
16:10	52.6	52.6	52.6	45	31.9	6	12	112	0.00	29.960 
16:15	52.6	52.6	52.6	46	32.4	5	10	112	0.00	29.949 
16:20	52.6	52.6	52.6	45	31.9	6	12	112	0.00	29.949 
16:25	52.3	52.3	52.3	46	32.1	6	13	112	0.00	29.935 
16:30	52.2	52.2	52.2	46	32.1	7	15	112	0.00	29.941 
16:35	52.2	52.2	52.2	46	32.1	6	12	112	0.00	29.937 
16:40	51.9	51.9	51.9	47	32.3	6	11	112	0.00	29.930 
16:45	51.7	51.7	51.7	48	32.6	6	12	112	0.00	29.927 
16:50	51.6	51.6	51.6	49	33.1	6	13	112	0.00	29.930 
16:55	51.6	51.6	51.6	49	33.1	6	11	112	0.00	29.932 
17:00	51.4	51.4	51.4	50	33.4	6	13	112	0.00	29.934 
17:05	51.4	51.4	51.4	51	33.9	4	14	90	0.00	29.936 
17:10	51.3	51.3	51.3	50	33.3	5	11	112	0.00	29.938 
17:15	51.1	51.1	51.1	52	34.1	6	11	112	0.00	29.934 
17:20	50.7	50.7	50.7	54	34.7	7	12	112	0.00	29.921 
17:25	50.5	50.5	50.5	56	35.4	5	9	112	0.00	29.921 
17:30	50.4	50.4	50.4	55	34.8	4	10	90	0.00	29.921 
17:35	50.4	50.4	50.4	54	34.4	5	15	112	0.00	29.918 
17:40	50.2	50.2	50.2	54	34.2	6	11	112	0.00	29.915 
17:45	50.2	50.2	50.2	55	34.7	5	10	112	0.00	29.918 
17:50	50.2	50.2	50.2	55	34.7	4	8	90	0.00	29.917 
17:55	50.1	50.1	50.1	55	34.6	4	8	112	0.00	29.917 
18:00	49.9	48.8	49.9	55	34.4	4	13	90	0.00	29.915 
18:05	49.9	48.8	49.9	55	34.4	4	7	112	0.00	29.908 
18:10	49.9	49.9	49.9	56	34.8	3	7	112	0.00	29.908 
18:15	49.9	49.9	49.9	55	34.4	3	6	90	0.00	29.913 
18:20	49.8	49.8	49.8	56	34.7	3	6	112	0.00	29.911 
18:25	49.8	49.8	49.8	58	35.6	2	5	112	0.00	29.914 
18:30	49.6	48.4	49.6	56	34.6	4	9	112	0.00	29.907 
18:35	49.6	49.6	49.6	57	35.0	3	8	112	0.00	29.905 
18:40	49.5	49.5	49.5	58	35.3	3	7	112	0.00	29.903 
18:45	49.4	47.5	49.4	58	35.2	5	9	112	0.00	29.888 
18:50	49.4	47.0	49.4	59	35.7	6	15	90	0.00	29.886 
18:55	48.9	45.4	48.9	62	36.5	8	16	112	0.00	29.886 
19:00	48.3	46.2	48.3	70	39.0	5	12	112	0.00	29.889 
19:05	47.1	44.8	47.1	78	40.6	5	12	112	0.00	29.885 
19:10	46.1	43.6	46.1	84	41.5	5	11	112	0.00	29.887 
19:15	45.5	43.7	45.5	87	41.9	4	10	112	0.00	29.880 
19:20	45.2	42.6	45.2	88	41.9	5	11	112	0.00	29.882 
19:25	45.1	42.5	45.1	89	42.1	5	11	90	0.00	29.876 
19:30	44.9	42.2	44.9	90	42.1	5	11	112	0.00	29.878 
19:35	44.8	42.1	44.8	91	42.3	5	8	90	0.00	29.877 
19:40	44.6	41.9	44.6	92	42.4	5	11	112	0.00	29.874 
19:45	44.6	41.2	44.6	92	42.4	6	11	112	0.00	29.873 
19:50	44.5	42.5	44.5	92	42.3	4	12	112	0.00	29.874 
19:55	44.5	44.5	44.5	93	42.6	3	6	112	0.01	29.874 
20:00	44.5	42.5	44.5	93	42.6	4	8	112	0.00	29.874 
20:05	44.3	42.3	44.3	94	42.7	4	9	112	0.00	29.871 
20:10	44.3	41.5	44.3	94	42.7	5	8	112	0.01	29.864 
20:15	44.3	42.3	44.3	95	43.0	4	7	112	0.01	29.854 
20:20	44.3	42.3	44.3	95	43.0	4	9	112	0.01	29.846 
20:25	44.3	42.3	44.3	95	43.0	4	9	90	0.00	29.851 
20:30	44.3	44.3	44.3	95	43.0	3	6	112	0.00	29.856 
20:35	44.5	44.5	44.5	95	43.2	3	8	112	0.00	29.857 
20:40	44.5	44.5	44.5	95	43.2	2	6	112	0.00	29.858 
20:45	44.5	44.5	44.5	95	43.2	1	4	112	0.01	29.873 
20:50	44.6	44.6	44.6	96	43.5	1	4	112	0.00	29.881 
20:55	44.6	44.6	44.6	96	43.5	1	3	0	0.01	29.897 
21:00	44.6	44.6	44.6	96	43.5	1	3	22	0.02	29.890 
21:05	44.6	44.6	44.6	96	43.5	1	4	45	0.02	29.884 
21:10	44.5	44.5	44.5	96	43.4	2	4	45	0.01	29.881 
21:15	44.3	44.3	44.3	96	43.2	1	5	68	0.01	29.872 
21:20	44.2	44.2	44.2	96	43.1	1	4	112	0.02	29.870 
21:25	43.9	43.9	43.9	96	42.8	2	5	45	0.01	29.868 
21:30	43.6	43.6	43.6	95	42.3	2	6	45	0.00	29.855 
21:35	43.2	43.2	43.2	95	41.9	3	7	22	0.01	29.856 
21:40	42.9	42.9	42.9	95	41.6	3	6	90	0.00	29.857 
21:45	42.8	42.8	42.8	95	41.5	3	6	22	0.00	29.855 
21:50	42.6	42.6	42.6	95	41.3	3	10	112	0.00	29.851 
21:55	42.5	40.2	42.5	95	41.2	4	10	112	0.00	29.846 
22:00	42.5	42.5	42.5	97	41.7	3	9	112	0.00	29.853 
22:05	42.3	40.0	42.3	95	41.0	4	10	112	0.01	29.849 
22:10	42.1	38.9	42.1	95	40.8	5	12	112	0.00	29.839 
22:15	41.8	38.6	41.8	95	40.5	5	13	112	0.01	29.829 
22:20	41.8	39.4	41.8	95	40.5	4	10	112	0.00	29.820 
22:25	41.6	41.6	41.6	95	40.3	3	10	112	0.00	29.821 
22:30	41.5	39.1	41.5	95	40.2	4	11	112	0.00	29.819 
22:35	41.5	38.2	41.5	95	40.2	5	12	112	0.00	29.818 
22:40	41.3	38.8	41.3	96	40.2	4	12	112	0.00	29.802 
22:45	41.2	37.2	41.2	95	39.9	6	14	112	0.00	29.786 
22:50	41.2	38.7	41.2	96	40.1	4	10	90	0.00	29.790 
22:55	41.2	37.9	41.2	96	40.1	5	11	112	0.00	29.791 
23:00	41.3	37.3	41.3	96	40.2	6	12	112	0.00	29.786 
23:05	41.3	38.8	41.3	96	40.2	4	12	112	0.00	29.787 
23:10	41.5	41.5	41.5	96	40.4	3	7	112	0.00	29.779 
23:15	41.6	39.2	41.6	96	40.5	4	7	112	0.00	29.774 
23:20	41.6	41.6	41.6	96	40.5	2	6	90	0.00	29.773 
23:25	41.8	41.8	41.8	96	40.7	1	4	112	0.00	29.778 
23:30	41.8	41.8	41.8	96	40.7	1	4	112	0.01	29.770 
23:35	41.8	41.8	41.8	96	40.7	2	6	90	0.02	29.760 
23:40	41.8	41.8	41.8	96	40.7	3	7	112	0.03	29.767 
23:45	41.9	39.5	41.9	96	40.8	4	7	90	0.02	29.755 
23:50	42.1	39.7	42.1	96	41.0	4	10	90	0.03	29.754 
23:55	42.2	39.9	42.2	96	41.1	4	10	112	0.02	29.754 

CoCoRaHS
IN-AL-39
A2 Web Hosting
Creative Commons License
GoDaddy
Look for:

loaded 2017-10-19 12:22:48 • last modified 2010-11-18 10:43:29
Privacy PolicyDisclaimer
• wx.awcolley.com is powered by PmWiki v.2002016 •
• all content (unless otherwise noted) © 2017 A W Colley